sensor_id;sensor_type;location;lat;lon;timestamp;pressure;altitude;pressure_sealevel;temperature;humidity
48216;BME280;34005;48.844;10.098;2023-05-11T00:02:16;96490.91;;;13.67;74.66
48216;BME280;34005;48.844;10.098;2023-05-11T00:04:44;96486.06;;;13.64;74.59
48216;BME280;34005;48.844;10.098;2023-05-11T00:07:11;96474.38;;;13.59;72.86
48216;BME280;34005;48.844;10.098;2023-05-11T00:09:40;96486.06;;;13.64;76.94
48216;BME280;34005;48.844;10.098;2023-05-11T00:12:08;96484.84;;;13.66;78.40
48216;BME280;34005;48.844;10.098;2023-05-11T00:14:35;96479.00;;;13.71;79.49
48216;BME280;34005;48.844;10.098;2023-05-11T00:17:03;96484.84;;;13.73;78.97
48216;BME280;34005;48.844;10.098;2023-05-11T00:19:31;96483.06;;;13.67;74.40
48216;BME280;34005;48.844;10.098;2023-05-11T00:21:59;96482.47;;;13.65;75.46
48216;BME280;34005;48.844;10.098;2023-05-11T00:24:27;96482.66;;;13.63;75.19
48216;BME280;34005;48.844;10.098;2023-05-11T00:26:56;96477.81;;;13.60;72.64
48216;BME280;34005;48.844;10.098;2023-05-11T00:29:24;96481.25;;;13.60;75.61
48216;BME280;34005;48.844;10.098;2023-05-11T00:31:51;96477.22;;;13.65;76.68
48216;BME280;34005;48.844;10.098;2023-05-11T00:34:19;96472.78;;;13.65;76.60
48216;BME280;34005;48.844;10.098;2023-05-11T00:36:47;96473.56;;;13.66;76.89
48216;BME280;34005;48.844;10.098;2023-05-11T00:39:14;96474.16;;;13.68;78.05
48216;BME280;34005;48.844;10.098;2023-05-11T00:41:43;96473.38;;;13.67;78.51
48216;BME280;34005;48.844;10.098;2023-05-11T00:44:12;96474.00;;;13.63;74.00
48216;BME280;34005;48.844;10.098;2023-05-11T00:46:40;96473.56;;;13.66;77.94
48216;BME280;34005;48.844;10.098;2023-05-11T00:49:08;96470.56;;;13.69;78.66
48216;BME280;34005;48.844;10.098;2023-05-11T00:51:37;96473.19;;;13.69;76.05
48216;BME280;34005;48.844;10.098;2023-05-11T00:54:04;96466.31;;;13.68;76.99
48216;BME280;34005;48.844;10.098;2023-05-11T00:56:38;96459.25;;;13.62;73.71
48216;BME280;34005;48.844;10.098;2023-05-11T00:59:06;96466.31;;;13.61;75.27
48216;BME280;34005;48.844;10.098;2023-05-11T01:01:37;96461.50;;;13.65;77.31
48216;BME280;34005;48.844;10.098;2023-05-11T01:04:05;96464.72;;;13.67;77.87
48216;BME280;34005;48.844;10.098;2023-05-11T01:06:39;96470.94;;;13.66;77.46
48216;BME280;34005;48.844;10.098;2023-05-11T01:09:21;96466.31;;;13.68;79.64
48216;BME280;34005;48.844;10.098;2023-05-11T01:11:55;96471.56;;;13.68;78.59
48216;BME280;34005;48.844;10.098;2023-05-11T01:14:32;96469.53;;;13.70;78.90
48216;BME280;34005;48.844;10.098;2023-05-11T01:17:05;96469.53;;;13.70;80.02
48216;BME280;34005;48.844;10.098;2023-05-11T01:19:41;96465.72;;;13.66;76.46
48216;BME280;34005;48.844;10.098;2023-05-11T01:22:22;96468.75;;;13.63;75.89
48216;BME280;34005;48.844;10.098;2023-05-11T01:25:05;96470.34;;;13.64;79.71
48216;BME280;34005;48.844;10.098;2023-05-11T01:27:48;96470.34;;;13.64;73.96
48216;BME280;34005;48.844;10.098;2023-05-11T01:30:33;96466.13;;;13.63;78.50
48216;BME280;34005;48.844;10.098;2023-05-11T01:33:06;96463.50;;;13.63;78.92
48216;BME280;34005;48.844;10.098;2023-05-11T01:35:38;96466.13;;;13.63;78.04
48216;BME280;34005;48.844;10.098;2023-05-11T01:38:10;96471.16;;;13.64;78.17
48216;BME280;34005;48.844;10.098;2023-05-11T01:40:40;96470.16;;;13.65;78.45
48216;BME280;34005;48.844;10.098;2023-05-11T01:43:12;96456.25;;;13.65;78.15
48216;BME280;34005;48.844;10.098;2023-05-11T01:45:45;96463.88;;;13.66;78.27
48216;BME280;34005;48.844;10.098;2023-05-11T01:48:20;96462.69;;;13.69;79.01
48216;BME280;34005;48.844;10.098;2023-05-11T01:50:49;96464.28;;;13.70;79.24
48216;BME280;34005;48.844;10.098;2023-05-11T01:53:17;96459.84;;;13.70;79.18
48216;BME280;34005;48.844;10.098;2023-05-11T01:55:46;96465.09;;;13.70;79.22
48216;BME280;34005;48.844;10.098;2023-05-11T01:58:16;96462.88;;;13.67;78.11
48216;BME280;34005;48.844;10.098;2023-05-11T02:00:46;96465.72;;;13.66;78.19
48216;BME280;34005;48.844;10.098;2023-05-11T02:03:15;96463.09;;;13.66;77.67
48216;BME280;34005;48.844;10.098;2023-05-11T02:05:43;96465.53;;;13.60;74.81
48216;BME280;34005;48.844;10.098;2023-05-11T02:08:13;96461.69;;;13.56;73.26
48216;BME280;34005;48.844;10.098;2023-05-11T02:10:42;96469.56;;;13.56;76.48
48216;BME280;34005;48.844;10.098;2023-05-11T02:13:09;96463.91;;;13.53;75.73
48216;BME280;34005;48.844;10.098;2023-05-11T02:15:40;96465.31;;;13.49;73.78
48216;BME280;34005;48.844;10.098;2023-05-11T02:18:13;96464.72;;;13.47;75.32
48216;BME280;34005;48.844;10.098;2023-05-11T02:20:42;96453.41;;;13.53;77.62
48216;BME280;34005;48.844;10.098;2023-05-11T02:23:10;96466.34;;;13.54;75.63
48216;BME280;34005;48.844;10.098;2023-05-11T02:25:39;96463.28;;;13.57;76.96
48216;BME280;34005;48.844;10.098;2023-05-11T02:28:07;96466.94;;;13.56;75.62
48216;BME280;34005;48.844;10.098;2023-05-11T02:30:38;96469.56;;;13.56;76.12
48216;BME280;34005;48.844;10.098;2023-05-11T02:33:08;96469.38;;;13.58;76.51
48216;BME280;34005;48.844;10.098;2023-05-11T02:35:42;96467.53;;;13.58;77.47
48216;BME280;34005;48.844;10.098;2023-05-11T02:38:11;96467.53;;;13.58;77.55
48216;BME280;34005;48.844;10.098;2023-05-11T02:40:43;96470.75;;;13.60;77.52
48216;BME280;34005;48.844;10.098;2023-05-11T02:43:14;96470.75;;;13.60;77.89
48216;BME280;34005;48.844;10.098;2023-05-11T02:45:45;96462.09;;;13.60;77.36
48216;BME280;34005;48.844;10.098;2023-05-11T02:48:20;96468.16;;;13.60;78.33
48216;BME280;34005;48.844;10.098;2023-05-11T02:50:51;96467.53;;;13.58;77.88
48216;BME280;34005;48.844;10.098;2023-05-11T02:53:24;96463.09;;;13.59;78.40
48216;BME280;34005;48.844;10.098;2023-05-11T02:55:53;96465.53;;;13.60;77.89
48216;BME280;34005;48.844;10.098;2023-05-11T02:58:21;96461.09;;;13.61;78.33
48216;BME280;34005;48.844;10.098;2023-05-11T03:00:49;96464.50;;;13.62;77.87
48216;BME280;34005;48.844;10.098;2023-05-11T03:03:17;96458.25;;;13.63;77.21
48216;BME280;34005;48.844;10.098;2023-05-11T03:05:45;96460.47;;;13.59;77.01
48216;BME280;34005;48.844;10.098;2023-05-11T03:08:14;96457.06;;;13.58;77.77
48216;BME280;34005;48.844;10.098;2023-05-11T03:10:42;96455.44;;;13.57;77.68
48216;BME280;34005;48.844;10.098;2023-05-11T03:13:09;96455.84;;;13.54;75.47
48216;BME280;34005;48.844;10.098;2023-05-11T03:15:37;96455.06;;;13.54;76.43
48216;BME280;34005;48.844;10.098;2023-05-11T03:18:06;96457.88;;;13.52;76.82
48216;BME280;34005;48.844;10.098;2023-05-11T03:20:36;96455.84;;;13.54;78.27
48216;BME280;34005;48.844;10.098;2023-05-11T03:23:05;96460.66;;;13.57;79.01
48216;BME280;34005;48.844;10.098;2023-05-11T03:25:35;96464.91;;;13.58;78.85
48216;BME280;34005;48.844;10.098;2023-05-11T03:28:03;96454.63;;;13.57;78.19
48216;BME280;34005;48.844;10.098;2023-05-11T03:30:32;96452.19;;;13.55;78.55
48216;BME280;34005;48.844;10.098;2023-05-11T03:33:00;96448.97;;;13.53;77.67
48216;BME280;34005;48.844;10.098;2023-05-11T03:35:28;96453.41;;;13.53;76.65
48216;BME280;34005;48.844;10.098;2023-05-11T03:37:58;96450.19;;;13.51;76.95
48216;BME280;34005;48.844;10.098;2023-05-11T03:40:26;96449.19;;;13.52;77.79
48216;BME280;34005;48.844;10.098;2023-05-11T03:42:57;96445.78;;;13.51;77.07
48216;BME280;34005;48.844;10.098;2023-05-11T03:45:29;96442.13;;;13.52;77.58
48216;BME280;34005;48.844;10.098;2023-05-11T03:47:58;96451.03;;;13.51;78.63
48216;BME280;34005;48.844;10.098;2023-05-11T03:50:28;96450.00;;;13.52;78.92
48216;BME280;34005;48.844;10.098;2023-05-11T03:52:56;96447.56;;;13.51;78.73
48216;BME280;34005;48.844;10.098;2023-05-11T03:55:24;96454.63;;;13.50;78.87
48216;BME280;34005;48.844;10.098;2023-05-11T03:57:52;96440.94;;;13.42;76.61
48216;BME280;34005;48.844;10.098;2023-05-11T04:00:22;96448.19;;;13.39;78.82
48216;BME280;34005;48.844;10.098;2023-05-11T04:02:51;96451.22;;;13.43;79.71
48216;BME280;34005;48.844;10.098;2023-05-11T04:05:18;96438.50;;;13.40;77.97
48216;BME280;34005;48.844;10.098;2023-05-11T04:07:46;96442.56;;;13.36;75.64
48216;BME280;34005;48.844;10.098;2023-05-11T04:10:13;96447.00;;;13.29;75.34
48216;BME280;34005;48.844;10.098;2023-05-11T04:12:41;96445.75;;;13.25;78.09
48216;BME280;34005;48.844;10.098;2023-05-11T04:15:09;96440.50;;;13.25;78.84
48216;BME280;34005;48.844;10.098;2023-05-11T04:17:38;96444.16;;;13.24;78.02
48216;BME280;34005;48.844;10.098;2023-05-11T04:20:06;96441.53;;;13.24;80.61
48216;BME280;34005;48.844;10.098;2023-05-11T04:22:34;96440.50;;;13.25;79.44
48216;BME280;34005;48.844;10.098;2023-05-11T04:25:02;96447.16;;;13.20;78.35
48216;BME280;34005;48.844;10.098;2023-05-11T04:27:31;96446.97;;;13.22;80.27
48216;BME280;34005;48.844;10.098;2023-05-11T04:29:59;96455.84;;;13.28;81.79
48216;BME280;34005;48.844;10.098;2023-05-11T04:32:26;96455.66;;;13.29;81.12
48216;BME280;34005;48.844;10.098;2023-05-11T04:34:56;96455.47;;;13.31;80.77
48216;BME280;34005;48.844;10.098;2023-05-11T04:37:24;96451.03;;;13.31;81.14
48216;BME280;34005;48.844;10.098;2023-05-11T04:39:52;96445.78;;;13.31;81.44
48216;BME280;34005;48.844;10.098;2023-05-11T04:42:19;96454.25;;;13.33;81.48
48216;BME280;34005;48.844;10.098;2023-05-11T04:44:47;96455.25;;;13.32;81.15
48216;BME280;34005;48.844;10.098;2023-05-11T04:47:14;96453.44;;;13.33;81.09
48216;BME280;34005;48.844;10.098;2023-05-11T04:49:42;96463.72;;;13.34;81.41
48216;BME280;34005;48.844;10.098;2023-05-11T04:52:11;96459.72;;;13.32;79.54
48216;BME280;34005;48.844;10.098;2023-05-11T04:54:39;96458.47;;;13.28;79.98
48216;BME280;34005;48.844;10.098;2023-05-11T04:57:06;96470.56;;;13.29;80.90
48216;BME280;34005;48.844;10.098;2023-05-11T04:59:34;96465.94;;;13.31;80.95
48216;BME280;34005;48.844;10.098;2023-05-11T05:02:02;96470.94;;;13.26;79.01
48216;BME280;34005;48.844;10.098;2023-05-11T05:04:29;96465.09;;;13.24;80.67
48216;BME280;34005;48.844;10.098;2023-05-11T05:07:00;96468.34;;;13.26;80.75
48216;BME280;34005;48.844;10.098;2023-05-11T05:09:29;96475.41;;;13.25;81.04
48216;BME280;34005;48.844;10.098;2023-05-11T05:11:57;96464.91;;;13.25;79.89
48216;BME280;34005;48.844;10.098;2023-05-11T05:14:24;96464.09;;;13.25;80.81
48216;BME280;34005;48.844;10.098;2023-05-11T05:16:52;96463.09;;;13.26;80.47
48216;BME280;34005;48.844;10.098;2023-05-11T05:19:20;96468.53;;;13.24;78.88
48216;BME280;34005;48.844;10.098;2023-05-11T05:21:47;96471.16;;;13.24;80.21
48216;BME280;34005;48.844;10.098;2023-05-11T05:24:15;96469.31;;;13.25;79.03
48216;BME280;34005;48.844;10.098;2023-05-11T05:26:44;96466.72;;;13.25;79.14
48216;BME280;34005;48.844;10.098;2023-05-11T05:29:11;96473.97;;;13.23;79.14
48216;BME280;34005;48.844;10.098;2023-05-11T05:31:39;96473.97;;;13.23;79.97
48216;BME280;34005;48.844;10.098;2023-05-11T05:34:06;96476.56;;;13.23;79.94
48216;BME280;34005;48.844;10.098;2023-05-11T05:36:34;96483.81;;;13.20;80.07
48216;BME280;34005;48.844;10.098;2023-05-11T05:39:02;96481.63;;;13.17;80.58
48216;BME280;34005;48.844;10.098;2023-05-11T05:41:34;96473.75;;;13.11;78.19
48216;BME280;34005;48.844;10.098;2023-05-11T05:44:03;96481.63;;;13.04;77.64
48216;BME280;34005;48.844;10.098;2023-05-11T05:46:31;96477.59;;;13.02;77.56
48216;BME280;34005;48.844;10.098;2023-05-11T05:48:58;96479.41;;;13.01;77.71
48216;BME280;34005;48.844;10.098;2023-05-11T05:51:26;96478.38;;;13.02;78.92
48216;BME280;34005;48.844;10.098;2023-05-11T05:53:53;96476.97;;;13.06;79.62
48216;BME280;34005;48.844;10.098;2023-05-11T05:56:22;96477.59;;;13.08;80.45
48216;BME280;34005;48.844;10.098;2023-05-11T05:58:49;96472.97;;;13.10;80.91
48216;BME280;34005;48.844;10.098;2023-05-11T06:01:18;96475.16;;;13.13;82.22
48216;BME280;34005;48.844;10.098;2023-05-11T06:03:47;96480.03;;;13.16;82.02
48216;BME280;34005;48.844;10.098;2023-05-11T06:06:17;96479.41;;;13.14;79.59
48216;BME280;34005;48.844;10.098;2023-05-11T06:08:45;96484.06;;;13.12;81.38
48216;BME280;34005;48.844;10.098;2023-05-11T06:11:12;96488.25;;;13.13;79.79
48216;BME280;34005;48.844;10.098;2023-05-11T06:13:40;96484.84;;;13.13;80.57
48216;BME280;34005;48.844;10.098;2023-05-11T06:16:08;96481.81;;;13.16;81.45
48216;BME280;34005;48.844;10.098;2023-05-11T06:18:37;96486.88;;;13.17;82.01
48216;BME280;34005;48.844;10.098;2023-05-11T06:21:05;96492.91;;;13.18;81.27
48216;BME280;34005;48.844;10.098;2023-05-11T06:23:32;96478.00;;;13.18;81.43
48216;BME280;34005;48.844;10.098;2023-05-11T06:26:00;96484.84;;;13.19;80.20
48216;BME280;34005;48.844;10.098;2023-05-11T06:28:27;96489.66;;;13.16;79.37
48216;BME280;34005;48.844;10.098;2023-05-11T06:30:55;96486.06;;;13.17;80.32
48216;BME280;34005;48.844;10.098;2023-05-11T06:33:24;96494.13;;;13.22;80.53
48216;BME280;34005;48.844;10.098;2023-05-11T06:35:53;96496.94;;;13.20;79.24
48216;BME280;34005;48.844;10.098;2023-05-11T06:38:21;96495.31;;;13.19;80.53
48216;BME280;34005;48.844;10.098;2023-05-11T06:40:50;96486.25;;;13.22;81.11
48216;BME280;34005;48.844;10.098;2023-05-11T06:43:18;96491.31;;;13.24;79.81
48216;BME280;34005;48.844;10.098;2023-05-11T06:45:46;96491.31;;;13.24;79.42
48216;BME280;34005;48.844;10.098;2023-05-11T06:48:13;96484.25;;;13.24;80.06
48216;BME280;34005;48.844;10.098;2023-05-11T06:50:41;96475.97;;;13.20;78.29
48216;BME280;34005;48.844;10.098;2023-05-11T06:53:10;96482.22;;;13.19;79.13
48216;BME280;34005;48.844;10.098;2023-05-11T06:55:37;96478.59;;;13.20;79.40
48216;BME280;34005;48.844;10.098;2023-05-11T06:58:05;96479.41;;;13.21;78.72
48216;BME280;34005;48.844;10.098;2023-05-11T07:00:32;96473.97;;;13.23;79.76
48216;BME280;34005;48.844;10.098;2023-05-11T07:03:00;96479.81;;;13.25;80.11
48216;BME280;34005;48.844;10.098;2023-05-11T07:05:28;96475.16;;;13.27;80.41
48216;BME280;34005;48.844;10.098;2023-05-11T07:07:55;96484.06;;;13.26;79.74
48216;BME280;34005;48.844;10.098;2023-05-11T07:10:24;96482.03;;;13.28;80.38
48216;BME280;34005;48.844;10.098;2023-05-11T07:12:52;96478.81;;;13.26;77.96
48216;BME280;34005;48.844;10.098;2023-05-11T07:15:19;96481.63;;;13.24;79.85
48216;BME280;34005;48.844;10.098;2023-05-11T07:17:47;96484.06;;;13.26;78.51
48216;BME280;34005;48.844;10.098;2023-05-11T07:20:15;96486.47;;;13.27;79.99
48216;BME280;34005;48.844;10.098;2023-05-11T07:22:43;96485.03;;;13.25;79.42
48216;BME280;34005;48.844;10.098;2023-05-11T07:25:11;96486.88;;;13.24;78.41
48216;BME280;34005;48.844;10.098;2023-05-11T07:27:40;96491.13;;;13.25;79.78
48216;BME280;34005;48.844;10.098;2023-05-11T07:30:08;96483.25;;;13.25;78.47
48216;BME280;34005;48.844;10.098;2023-05-11T07:32:36;96486.44;;;13.20;76.91
48216;BME280;34005;48.844;10.098;2023-05-11T07:35:04;96487.28;;;13.21;79.31
48216;BME280;34005;48.844;10.098;2023-05-11T07:37:33;96482.84;;;13.22;78.37
48216;BME280;34005;48.844;10.098;2023-05-11T07:40:00;96484.84;;;13.19;77.63
48216;BME280;34005;48.844;10.098;2023-05-11T07:42:28;96484.44;;;13.23;77.80
48216;BME280;34005;48.844;10.098;2023-05-11T07:44:57;96490.88;;;13.27;79.01
48216;BME280;34005;48.844;10.098;2023-05-11T07:47:24;96494.38;;;13.34;80.21
48216;BME280;34005;48.844;10.098;2023-05-11T07:49:52;96487.31;;;13.41;80.62
48216;BME280;34005;48.844;10.098;2023-05-11T07:52:19;96488.91;;;13.42;79.64
48216;BME280;34005;48.844;10.098;2023-05-11T07:54:47;96493.53;;;13.40;77.18
48216;BME280;34005;48.844;10.098;2023-05-11T07:57:14;96488.91;;;13.35;76.80
48216;BME280;34005;48.844;10.098;2023-05-11T07:59:42;96482.44;;;13.38;77.68
48216;BME280;34005;48.844;10.098;2023-05-11T08:02:11;96487.13;;;13.36;75.93
48216;BME280;34005;48.844;10.098;2023-05-11T08:04:39;96486.09;;;13.37;76.79
48216;BME280;34005;48.844;10.098;2023-05-11T08:07:06;96483.88;;;13.41;77.59
48216;BME280;34005;48.844;10.098;2023-05-11T08:09:34;96488.91;;;13.42;76.00
48216;BME280;34005;48.844;10.098;2023-05-11T08:12:02;96482.06;;;13.41;75.46
48216;BME280;34005;48.844;10.098;2023-05-11T08:14:30;96481.66;;;13.44;76.97
48216;BME280;34005;48.844;10.098;2023-05-11T08:16:58;96479.25;;;13.49;76.88
48216;BME280;34005;48.844;10.098;2023-05-11T08:19:27;96485.88;;;13.52;76.52
48216;BME280;34005;48.844;10.098;2023-05-11T08:21:55;96477.81;;;13.53;75.72
48216;BME280;34005;48.844;10.098;2023-05-11T08:24:22;96480.66;;;13.52;74.23
48216;BME280;34005;48.844;10.098;2023-05-11T08:26:50;96476.03;;;13.47;74.27
48216;BME280;34005;48.844;10.098;2023-05-11T08:29:17;96481.25;;;13.47;74.37
48216;BME280;34005;48.844;10.098;2023-05-11T08:31:45;96486.09;;;13.50;74.32
48216;BME280;34005;48.844;10.098;2023-05-11T08:34:12;96486.88;;;13.57;75.38
48216;BME280;34005;48.844;10.098;2023-05-11T08:36:47;96481.44;;;13.59;75.01
48216;BME280;34005;48.844;10.098;2023-05-11T08:39:14;96479.22;;;13.63;76.41
48216;BME280;34005;48.844;10.098;2023-05-11T08:42:02;96486.88;;;13.64;75.34
48216;BME280;34005;48.844;10.098;2023-05-11T08:44:33;96485.69;;;13.67;76.75
48216;BME280;34005;48.844;10.098;2023-05-11T08:47:03;96492.09;;;13.71;76.58
48216;BME280;34005;48.844;10.098;2023-05-11T08:49:49;96488.91;;;13.75;75.71
48216;BME280;34005;48.844;10.098;2023-05-11T08:52:18;96483.44;;;13.77;75.01
48216;BME280;34005;48.844;10.098;2023-05-11T08:54:46;96484.63;;;13.81;76.64
48216;BME280;34005;48.844;10.098;2023-05-11T08:57:14;96483.84;;;13.80;74.02
48216;BME280;34005;48.844;10.098;2023-05-11T08:59:43;96484.44;;;13.76;73.92
48216;BME280;34005;48.844;10.098;2023-05-11T09:02:14;96489.69;;;13.76;75.02
48216;BME280;34005;48.844;10.098;2023-05-11T09:04:43;96479.59;;;13.73;74.97
48216;BME280;34005;48.844;10.098;2023-05-11T09:07:15;96482.84;;;13.68;75.54
48216;BME280;34005;48.844;10.098;2023-05-11T09:09:46;96479.00;;;13.64;74.38
48216;BME280;34005;48.844;10.098;2023-05-11T09:12:14;96482.03;;;13.61;75.48
48216;BME280;34005;48.844;10.098;2023-05-11T09:14:42;96484.47;;;13.56;73.77
48216;BME280;34005;48.844;10.098;2023-05-11T09:17:10;96484.06;;;13.52;73.07
48216;BME280;34005;48.844;10.098;2023-05-11T09:19:55;96490.09;;;13.53;73.65
48216;BME280;34005;48.844;10.098;2023-05-11T09:22:23;96482.47;;;13.51;73.50
48216;BME280;34005;48.844;10.098;2023-05-11T09:24:56;96489.31;;;13.52;74.62
48216;BME280;34005;48.844;10.098;2023-05-11T09:27:24;96483.06;;;13.47;73.50
48216;BME280;34005;48.844;10.098;2023-05-11T09:29:52;96482.66;;;13.43;75.23
48216;BME280;34005;48.844;10.098;2023-05-11T09:32:20;96488.09;;;13.42;75.19
48216;BME280;34005;48.844;10.098;2023-05-11T09:34:48;96481.66;;;13.37;73.50
48216;BME280;34005;48.844;10.098;2023-05-11T09:37:16;96483.66;;;13.35;74.31
48216;BME280;34005;48.844;10.098;2023-05-11T09:39:44;96480.06;;;13.36;73.69
48216;BME280;34005;48.844;10.098;2023-05-11T09:42:33;96478.22;;;13.37;73.67
48216;BME280;34005;48.844;10.098;2023-05-11T09:45:01;96482.44;;;13.38;73.47
48216;BME280;34005;48.844;10.098;2023-05-11T09:47:37;96477.63;;;13.42;75.27
48216;BME280;34005;48.844;10.098;2023-05-11T09:50:15;96487.31;;;13.41;72.70
48216;BME280;34005;48.844;10.098;2023-05-11T09:52:49;96482.66;;;13.43;73.83
48216;BME280;34005;48.844;10.098;2023-05-11T09:55:17;96487.31;;;13.48;74.53
48216;BME280;34005;48.844;10.098;2023-05-11T09:57:52;96493.34;;;13.55;77.20
48216;BME280;34005;48.844;10.098;2023-05-11T10:00:20;96487.28;;;13.61;76.59
48216;BME280;34005;48.844;10.098;2023-05-11T10:03:00;96490.50;;;13.63;73.04
48216;BME280;34005;48.844;10.098;2023-05-11T10:05:29;96484.06;;;13.59;72.65
48216;BME280;34005;48.844;10.098;2023-05-11T10:07:58;96479.44;;;13.54;72.38
48216;BME280;34005;48.844;10.098;2023-05-11T10:10:28;96484.06;;;13.52;73.63
48216;BME280;34005;48.844;10.098;2023-05-11T10:12:59;96484.88;;;13.53;72.20
48216;BME280;34005;48.844;10.098;2023-05-11T10:15:28;96483.47;;;13.50;72.31
48216;BME280;34005;48.844;10.098;2023-05-11T10:17:58;96480.03;;;13.50;72.35
48216;BME280;34005;48.844;10.098;2023-05-11T10:20:26;96476.81;;;13.54;73.62
48216;BME280;34005;48.844;10.098;2023-05-11T10:22:54;96475.59;;;13.64;74.26
48216;BME280;34005;48.844;10.098;2023-05-11T10:25:23;96475.19;;;13.67;72.75
48216;BME280;34005;48.844;10.098;2023-05-11T10:27:52;96484.84;;;13.59;72.30
48216;BME280;34005;48.844;10.098;2023-05-11T10:30:22;96469.75;;;13.55;72.80
48216;BME280;34005;48.844;10.098;2023-05-11T10:32:50;96467.94;;;13.55;72.94
48216;BME280;34005;48.844;10.098;2023-05-11T10:35:19;96474.00;;;13.63;74.39
48216;BME280;34005;48.844;10.098;2023-05-11T10:37:47;96466.72;;;13.71;74.71
48216;BME280;34005;48.844;10.098;2023-05-11T10:40:15;96467.91;;;13.82;75.81
48216;BME280;34005;48.844;10.098;2023-05-11T10:43:00;96461.03;;;13.88;73.88
48216;BME280;34005;48.844;10.098;2023-05-11T10:45:36;96462.81;;;13.94;76.61
48216;BME280;34005;48.844;10.098;2023-05-11T10:48:29;96463.84;;;13.99;77.38
48216;BME280;34005;48.844;10.098;2023-05-11T10:51:12;96460.78;;;14.02;76.79
48216;BME280;34005;48.844;10.098;2023-05-11T10:53:49;96461.81;;;14.01;74.31
48216;BME280;34005;48.844;10.098;2023-05-11T10:56:29;96455.56;;;13.96;75.18
48216;BME280;34005;48.844;10.098;2023-05-11T11:02:05;96459.22;;;13.81;72.37
48216;BME280;34005;48.844;10.098;2023-05-11T11:04:43;96447.72;;;13.83;75.27
48216;BME280;34005;48.844;10.098;2023-05-11T11:07:11;96460.66;;;13.84;74.49
48216;BME280;34005;48.844;10.098;2023-05-11T11:09:51;96452.34;;;13.87;71.62
48216;BME280;34005;48.844;10.098;2023-05-11T11:12:20;96452.16;;;13.89;72.60
48216;BME280;34005;48.844;10.098;2023-05-11T11:14:53;96452.13;;;13.95;72.87
48216;BME280;34005;48.844;10.098;2023-05-11T11:17:24;96452.50;;;13.99;71.74
48216;BME280;34005;48.844;10.098;2023-05-11T11:19:53;96455.38;;;13.97;72.05
48216;BME280;34005;48.844;10.098;2023-05-11T11:22:42;96451.88;;;14.04;74.29
48216;BME280;34005;48.844;10.098;2023-05-11T11:25:14;96453.09;;;14.08;74.30
48216;BME280;34005;48.844;10.098;2023-05-11T11:27:56;96452.47;;;14.12;75.28
48216;BME280;34005;48.844;10.098;2023-05-11T11:30:25;96446.41;;;14.12;73.58
48216;BME280;34005;48.844;10.098;2023-05-11T11:33:31;96444.03;;;14.10;70.01
48216;BME280;34005;48.844;10.098;2023-05-11T11:36:00;96448.28;;;14.05;73.20
48216;BME280;34005;48.844;10.098;2023-05-11T11:38:29;96454.31;;;14.05;73.23
48216;BME280;34005;48.844;10.098;2023-05-11T11:40:57;96451.50;;;14.07;74.24
48216;BME280;34005;48.844;10.098;2023-05-11T11:43:43;96456.75;;;14.07;72.68
48216;BME280;34005;48.844;10.098;2023-05-11T11:46:24;96452.28;;;14.07;75.86
48216;BME280;34005;48.844;10.098;2023-05-11T11:49:05;96449.66;;;14.07;72.74
48216;BME280;34005;48.844;10.098;2023-05-11T11:51:33;96456.75;;;14.07;72.62
48216;BME280;34005;48.844;10.098;2023-05-11T11:54:02;96455.09;;;14.06;72.17
48216;BME280;34005;48.844;10.098;2023-05-11T11:56:44;96453.50;;;14.05;74.61
48216;BME280;34005;48.844;10.098;2023-05-11T11:59:13;96457.56;;;14.00;71.85
48216;BME280;34005;48.844;10.098;2023-05-11T12:01:42;96451.72;;;13.98;73.58
48216;BME280;34005;48.844;10.098;2023-05-11T12:04:33;96456.97;;;13.98;73.31
48216;BME280;34005;48.844;10.098;2023-05-11T12:07:06;96455.97;;;13.99;75.29
48216;BME280;34005;48.844;10.098;2023-05-11T12:09:36;96454.16;;;13.93;71.92
48216;BME280;34005;48.844;10.098;2023-05-11T12:12:05;96453.94;;;13.88;72.56
48216;BME280;34005;48.844;10.098;2023-05-11T12:14:33;96453.75;;;13.90;74.64
48216;BME280;34005;48.844;10.098;2023-05-11T12:17:03;96454.56;;;13.90;73.45
48216;BME280;34005;48.844;10.098;2023-05-11T12:19:32;96451.34;;;13.88;72.66
48216;BME280;34005;48.844;10.098;2023-05-11T12:22:00;96445.28;;;13.88;73.74
48216;BME280;34005;48.844;10.098;2023-05-11T12:24:28;96450.53;;;13.88;72.76
48216;BME280;34005;48.844;10.098;2023-05-11T12:26:56;96444.91;;;13.84;72.12
48216;BME280;34005;48.844;10.098;2023-05-11T12:29:24;96450.16;;;13.84;72.66
48216;BME280;34005;48.844;10.098;2023-05-11T12:31:52;96446.50;;;13.85;72.14
48216;BME280;34005;48.844;10.098;2023-05-11T12:34:21;96444.31;;;13.82;71.67
48216;BME280;34005;48.844;10.098;2023-05-11T12:36:51;96453.16;;;13.81;71.02
48216;BME280;34005;48.844;10.098;2023-05-11T12:39:21;96452.56;;;13.79;70.60
48216;BME280;34005;48.844;10.098;2023-05-11T12:41:51;96445.31;;;13.81;72.29
48216;BME280;34005;48.844;10.098;2023-05-11T12:44:20;96438.84;;;13.84;71.72
48216;BME280;34005;48.844;10.098;2023-05-11T12:46:49;96446.69;;;13.90;73.00
48216;BME280;34005;48.844;10.098;2023-05-11T12:49:17;96446.28;;;14.00;74.71
48216;BME280;34005;48.844;10.098;2023-05-11T12:51:59;96445.22;;;14.08;75.79
48216;BME280;34005;48.844;10.098;2023-05-11T12:54:30;96445.81;;;14.10;72.97
48216;BME280;34005;48.844;10.098;2023-05-11T12:56:58;96447.44;;;14.11;73.54
48216;BME280;34005;48.844;10.098;2023-05-11T12:59:33;96449.03;;;14.12;72.85
48216;BME280;34005;48.844;10.098;2023-05-11T13:02:10;96449.66;;;14.14;74.66
48216;BME280;34005;48.844;10.098;2023-05-11T13:04:39;96435.72;;;14.13;75.10
48216;BME280;34005;48.844;10.098;2023-05-11T13:07:10;96442.19;;;14.11;72.35
48216;BME280;34005;48.844;10.098;2023-05-11T13:09:38;96435.56;;;14.08;72.77